createdAt,value
2022-09-25T00:02:29.411Z,39.50
2022-09-25T00:05:03.946Z,41.90
2022-09-25T00:07:37.878Z,40.90
2022-09-25T00:10:13.254Z,41.53
2022-09-25T00:12:49.251Z,40.70
2022-09-25T00:15:24.466Z,40.90
2022-09-25T00:18:01.223Z,41.47
2022-09-25T00:20:35.242Z,39.63
2022-09-25T00:23:10.239Z,41.30
2022-09-25T00:25:47.700Z,42.97
2022-09-25T00:28:23.048Z,41.63
2022-09-25T00:30:58.271Z,41.17
2022-09-25T00:33:35.409Z,41.13
2022-09-25T00:36:13.718Z,40.17
2022-09-25T00:38:50.487Z,42.57
2022-09-25T00:41:29.431Z,42.80
2022-09-25T00:44:11.556Z,42.80
2022-09-25T00:46:52.606Z,42.17
2022-09-25T00:49:30.504Z,48.37
2022-09-25T00:52:07.858Z,45.50
2022-09-25T00:54:49.080Z,48.07
2022-09-25T00:57:28.203Z,48.50
2022-09-25T01:00:07.921Z,51.10
2022-09-25T01:02:43.481Z,50.93
2022-09-25T01:05:26.370Z,54.00
2022-09-25T01:08:02.930Z,52.87
2022-09-25T01:10:38.380Z,52.03
2022-09-25T01:13:18.533Z,52.57
2022-09-25T01:15:59.661Z,51.03
2022-09-25T01:18:48.389Z,50.97
2022-09-25T01:21:41.867Z,49.23
2022-09-25T01:24:47.289Z,51.43
2022-09-25T01:28:03.723Z,49.73
2022-09-25T01:30:55.891Z,48.73
2022-09-25T01:33:43.205Z,48.07
2022-09-25T01:36:32.840Z,47.70
2022-09-25T01:39:26.649Z,44.20
2022-09-25T01:42:09.600Z,43.30
2022-09-25T01:44:48.208Z,43.03
2022-09-25T01:47:36.092Z,43.90
2022-09-25T01:50:16.369Z,43.97
2022-09-25T01:52:56.249Z,46.10
2022-09-25T01:55:43.856Z,45.97
2022-09-25T01:58:26.123Z,42.53
2022-09-25T02:01:05.072Z,44.93
2022-09-25T02:03:46.156Z,46.47
2022-09-25T02:06:28.620Z,44.03
2022-09-25T02:09:10.524Z,43.83
2022-09-25T02:12:03.990Z,45.67
2022-09-25T02:14:44.847Z,44.70
2022-09-25T02:17:38.646Z,44.23
2022-09-25T02:20:38.887Z,43.17
2022-09-25T02:23:23.555Z,44.87
2022-09-25T02:26:05.234Z,43.50
2022-09-25T02:28:50.389Z,44.27
2022-09-25T02:31:43.302Z,43.47
2022-09-25T02:34:18.060Z,43.07
2022-09-25T02:36:57.158Z,40.92
2022-09-25T02:39:35.367Z,41.50
2022-09-25T02:42:30.179Z,41.90
2022-09-25T02:45:21.834Z,39.90
2022-09-25T02:48:10.234Z,40.25
2022-09-25T02:50:56.874Z,39.35
2022-09-25T02:53:46.578Z,38.90
2022-09-25T02:56:28.702Z,40.35
2022-09-25T02:59:18.973Z,38.03
2022-09-25T03:01:54.718Z,40.55
2022-09-25T03:04:33.438Z,40.40
2022-09-25T03:07:10.049Z,37.03
2022-09-25T03:09:50.386Z,38.30
2022-09-25T03:12:27.965Z,38.17
2022-09-25T03:15:04.333Z,36.03
2022-09-25T03:17:41.267Z,36.50
2022-09-25T03:20:29.400Z,35.93
2022-09-25T03:23:06.687Z,36.07
2022-09-25T03:25:47.531Z,36.17
2022-09-25T03:28:39.090Z,33.87
2022-09-25T03:31:15.686Z,32.43
2022-09-25T03:33:51.107Z,30.47
2022-09-25T03:36:27.735Z,29.63
2022-09-25T03:39:04.728Z,29.15
2022-09-25T03:41:42.435Z,27.40
2022-09-25T03:44:22.756Z,27.93
2022-09-25T03:47:04.252Z,28.57
2022-09-25T03:49:37.860Z,28.50
2022-09-25T03:52:23.458Z,27.00
2022-09-25T03:55:07.252Z,27.17
2022-09-25T03:57:45.394Z,26.80
2022-09-25T04:00:27.877Z,27.20
2022-09-25T04:03:01.800Z,28.17
2022-09-25T04:05:40.717Z,27.58
2022-09-25T04:08:14.973Z,27.88
2022-09-25T04:10:49.263Z,27.23
2022-09-25T04:13:31.146Z,26.60
2022-09-25T04:16:09.646Z,29.08
2022-09-25T04:18:45.591Z,29.97
2022-09-25T04:21:24.607Z,29.50
2022-09-25T04:24:15.452Z,29.77
2022-09-25T04:26:52.872Z,29.07
2022-09-25T04:29:44.077Z,29.47
2022-09-25T04:32:39.636Z,28.43
2022-09-25T04:35:18.894Z,30.27
2022-09-25T04:37:55.863Z,30.57
2022-09-25T04:40:33.612Z,31.33
2022-09-25T04:43:12.867Z,30.53
2022-09-25T04:45:57.041Z,32.40
2022-09-25T04:48:42.616Z,34.30
2022-09-25T04:51:28.562Z,33.20
2022-09-25T04:54:16.370Z,34.67
2022-09-25T04:56:55.490Z,35.80
2022-09-25T04:59:42.801Z,34.37
2022-09-25T05:02:22.709Z,34.97
2022-09-25T05:04:58.011Z,36.10
2022-09-25T05:07:36.835Z,32.60
2022-09-25T05:10:13.018Z,36.00
2022-09-25T05:12:50.242Z,33.67
2022-09-25T05:15:26.345Z,34.90
2022-09-25T05:18:11.117Z,34.13
2022-09-25T05:20:46.283Z,34.90
2022-09-25T05:23:20.860Z,34.10
2022-09-25T05:26:03.555Z,32.57
2022-09-25T05:28:43.535Z,34.93
2022-09-25T05:31:18.271Z,35.30
2022-09-25T05:34:10.097Z,35.87
2022-09-25T05:36:50.553Z,32.97
2022-09-25T05:39:30.270Z,33.47
2022-09-25T05:42:04.909Z,33.90
2022-09-25T05:44:43.699Z,31.07
2022-09-25T05:47:18.992Z,32.60
2022-09-25T05:50:01.324Z,30.37
2022-09-25T05:52:42.411Z,27.70
2022-09-25T05:55:17.672Z,29.43
2022-09-25T05:57:51.792Z,26.23
2022-09-25T06:00:29.589Z,27.80
2022-09-25T06:03:03.447Z,26.03
2022-09-25T06:05:41.769Z,25.90
2022-09-25T06:08:20.993Z,25.90
2022-09-25T06:10:58.094Z,24.50
2022-09-25T06:13:38.506Z,25.80
2022-09-25T06:16:21.219Z,26.50
2022-09-25T06:18:55.782Z,28.30
2022-09-25T06:21:40.729Z,26.90
2022-09-25T06:24:16.301Z,25.47
2022-09-25T06:26:52.073Z,28.70
2022-09-25T06:29:26.737Z,28.97
2022-09-25T06:32:04.582Z,27.87
2022-09-25T06:34:40.881Z,30.13
2022-09-25T06:37:18.515Z,28.73
2022-09-25T06:39:59.379Z,30.00
2022-09-25T06:43:00.492Z,31.70
2022-09-25T06:45:36.830Z,27.03
2022-09-25T06:48:13.942Z,27.47
2022-09-25T06:50:53.091Z,26.33
2022-09-25T06:53:31.431Z,28.20
2022-09-25T06:56:11.852Z,27.90
2022-09-25T06:58:52.369Z,26.60
2022-09-25T07:01:35.947Z,26.87
2022-09-25T07:04:09.633Z,27.07
2022-09-25T07:06:48.414Z,25.97
2022-09-25T07:09:27.170Z,27.33
2022-09-25T07:12:02.484Z,27.47
2022-09-25T07:14:48.082Z,26.73
2022-09-25T07:17:21.324Z,26.90
2022-09-25T07:20:03.077Z,26.40
2022-09-25T07:22:38.268Z,25.83
2022-09-25T07:25:19.550Z,26.37
2022-09-25T07:27:57.078Z,25.27
2022-09-25T07:30:33.361Z,26.50
2022-09-25T07:33:10.202Z,26.50
2022-09-25T07:35:47.945Z,26.13
2022-09-25T07:38:25.286Z,24.27
2022-09-25T07:41:07.659Z,24.90
2022-09-25T07:44:02.040Z,24.60
2022-09-25T07:46:50.220Z,25.93
2022-09-25T07:49:30.459Z,26.17
2022-09-25T07:52:20.649Z,26.30
2022-09-25T07:55:03.889Z,25.67
2022-09-25T07:57:53.268Z,25.47
2022-09-25T08:00:31.210Z,25.53
2022-09-25T08:03:05.638Z,25.00
2022-09-25T08:05:43.396Z,24.73
2022-09-25T08:08:23.269Z,24.77
2022-09-25T08:11:08.152Z,24.87
2022-09-25T08:13:51.542Z,25.50
2022-09-25T08:16:37.407Z,24.63
2022-09-25T08:19:19.756Z,24.47
2022-09-25T08:21:54.862Z,24.90
2022-09-25T08:24:30.922Z,26.60
2022-09-25T08:27:06.462Z,27.23
2022-09-25T08:29:44.008Z,26.80
2022-09-25T08:32:18.700Z,25.93
2022-09-25T08:34:52.188Z,27.00
2022-09-25T08:37:41.660Z,26.17
2022-09-25T08:40:23.433Z,24.80
2022-09-25T08:43:09.677Z,25.60
2022-09-25T08:46:06.731Z,25.60
2022-09-25T08:49:02.347Z,26.37
2022-09-25T08:51:41.117Z,25.07
2022-09-25T08:54:22.993Z,25.67
2022-09-25T08:57:05.920Z,25.83
2022-09-25T08:59:45.393Z,24.67
2022-09-25T09:02:23.292Z,25.07
2022-09-25T09:05:04.079Z,25.07
2022-09-25T09:07:48.541Z,27.23
2022-09-25T09:10:32.558Z,27.10
2022-09-25T09:13:21.033Z,27.07
2022-09-25T09:16:09.219Z,24.70
2022-09-25T09:18:55.729Z,25.77
2022-09-25T09:21:39.442Z,26.27
2022-09-25T09:24:20.908Z,26.33
2022-09-25T09:27:15.471Z,25.50
2022-09-25T09:30:06.096Z,25.30
2022-09-25T09:33:15.606Z,24.83
2022-09-25T09:36:03.742Z,25.13
2022-09-25T09:38:47.169Z,25.40
2022-09-25T09:41:39.195Z,25.23
2022-09-25T09:44:34.967Z,25.23
2022-09-25T09:47:24.048Z,25.63
2022-09-25T09:50:02.749Z,24.70
2022-09-25T09:52:39.620Z,23.80
2022-09-25T09:55:28.565Z,24.73
2022-09-25T09:58:10.072Z,24.57
2022-09-25T10:00:49.683Z,23.27
2022-09-25T10:03:31.602Z,24.70
2022-09-25T10:06:09.274Z,24.00
2022-09-25T10:08:48.766Z,23.27
2022-09-25T10:11:23.571Z,23.50
2022-09-25T10:14:01.176Z,22.83
2022-09-25T10:16:37.164Z,22.43
2022-09-25T10:19:22.439Z,22.93
2022-09-25T10:22:14.632Z,21.37
2022-09-25T10:25:07.788Z,21.00
2022-09-25T10:27:50.145Z,21.40
2022-09-25T10:30:27.220Z,21.00
2022-09-25T10:33:08.331Z,20.93
2022-09-25T10:35:50.705Z,18.70
2022-09-25T10:38:43.317Z,19.53
2022-09-25T10:41:22.361Z,19.03
2022-09-25T10:44:04.737Z,18.93
2022-09-25T10:46:56.122Z,17.63
2022-09-25T10:49:46.131Z,17.70
2022-09-25T10:52:23.610Z,17.33
2022-09-25T10:55:26.540Z,17.07
2022-09-25T10:58:14.356Z,17.53
2022-09-25T11:00:57.386Z,16.93
2022-09-25T11:03:35.713Z,17.00
2022-09-25T11:06:23.476Z,17.23
2022-09-25T11:09:18.658Z,17.17
2022-09-25T11:11:55.807Z,15.47
2022-09-25T11:14:38.932Z,16.23
2022-09-25T11:17:36.089Z,16.17
2022-09-25T11:20:32.614Z,16.23
2022-09-25T11:23:30.859Z,15.83
2022-09-25T11:26:13.295Z,14.77
2022-09-25T11:28:55.840Z,15.90
2022-09-25T11:31:41.241Z,14.63
2022-09-25T11:34:29.526Z,15.67
2022-09-25T11:37:12.964Z,15.67
2022-09-25T11:40:08.577Z,15.27
2022-09-25T11:42:53.870Z,14.87
2022-09-25T11:45:37.232Z,14.53
2022-09-25T11:48:24.939Z,14.73
2022-09-25T11:51:11.059Z,15.93
2022-09-25T11:54:12.411Z,16.27
2022-09-25T11:57:05.124Z,15.83
2022-09-25T12:00:07.185Z,15.43
2022-09-25T12:02:54.074Z,13.87
2022-09-25T12:05:42.594Z,14.80
2022-09-25T12:08:32.601Z,14.13
2022-09-25T12:11:20.346Z,13.87
2022-09-25T12:14:04.725Z,13.23
2022-09-25T12:16:46.652Z,13.20
2022-09-25T12:19:39.323Z,13.37
2022-09-25T12:22:21.791Z,14.23
2022-09-25T12:25:11.745Z,13.93
2022-09-25T12:27:55.062Z,14.07
2022-09-25T12:30:39.480Z,16.00
2022-09-25T12:33:33.798Z,14.37
2022-09-25T12:36:18.428Z,15.00
2022-09-25T12:38:58.380Z,14.33
2022-09-25T12:41:52.203Z,15.03
2022-09-25T12:44:40.910Z,14.37
2022-09-25T12:47:27.556Z,15.60
2022-09-25T12:50:07.192Z,14.83
2022-09-25T12:52:48.664Z,13.97
2022-09-25T12:55:38.146Z,15.03
2022-09-25T12:58:26.354Z,14.87
2022-09-25T13:01:14.431Z,15.60
2022-09-25T13:04:04.752Z,15.17
2022-09-25T13:06:49.173Z,14.23
2022-09-25T13:09:31.400Z,14.10
2022-09-25T13:12:31.477Z,15.73
2022-09-25T13:15:10.919Z,14.77
2022-09-25T13:17:57.737Z,15.10
2022-09-25T13:21:06.633Z,15.17
2022-09-25T13:23:54.112Z,15.23
2022-09-25T13:26:30.168Z,14.63
2022-09-25T13:29:22.740Z,15.50
2022-09-25T13:32:05.907Z,14.93
2022-09-25T13:34:50.175Z,13.60
2022-09-25T13:37:40.062Z,14.73
2022-09-25T13:40:41.275Z,15.23
2022-09-25T13:43:28.137Z,15.20
2022-09-25T13:46:41.731Z,15.10
2022-09-25T13:49:47.793Z,14.37
2022-09-25T13:52:36.007Z,13.80
2022-09-25T13:55:28.468Z,12.83
2022-09-25T13:58:22.094Z,13.20
2022-09-25T14:01:04.622Z,12.27
2022-09-25T14:03:46.006Z,13.67
2022-09-25T14:06:30.525Z,12.57
2022-09-25T14:09:14.357Z,13.60
2022-09-25T14:11:57.078Z,13.60
2022-09-25T14:14:41.517Z,11.37
2022-09-25T14:17:24.826Z,14.17
2022-09-25T14:20:12.620Z,13.10
2022-09-25T14:23:07.695Z,10.27
2022-09-25T14:25:45.861Z,10.13
2022-09-25T14:28:28.632Z,11.30
2022-09-25T14:31:25.078Z,10.63
2022-09-25T14:34:32.956Z,10.80
2022-09-25T14:37:30.439Z,10.67
2022-09-25T14:40:13.114Z,11.60
2022-09-25T14:43:20.126Z,11.23
2022-09-25T14:46:13.020Z,11.47
2022-09-25T14:48:55.910Z,11.87
2022-09-25T14:52:05.465Z,10.73
2022-09-25T14:54:50.505Z,11.77
2022-09-25T14:57:30.463Z,11.13
2022-09-25T15:00:09.276Z,11.53
2022-09-25T15:02:51.642Z,11.23
2022-09-25T15:05:36.926Z,11.00
2022-09-25T15:08:32.510Z,10.80
2022-09-25T15:11:17.954Z,10.27
2022-09-25T15:13:52.637Z,11.23
2022-09-25T15:16:44.978Z,12.13
2022-09-25T15:19:24.778Z,10.43
2022-09-25T15:21:59.330Z,9.67
2022-09-25T15:24:39.055Z,10.07
2022-09-25T15:27:20.592Z,10.60
2022-09-25T15:30:12.791Z,9.90
2022-09-25T15:32:47.865Z,9.73
2022-09-25T15:35:30.844Z,10.30
2022-09-25T15:38:11.195Z,10.60
2022-09-25T15:40:48.043Z,9.77
2022-09-25T15:43:32.032Z,10.73
2022-09-25T15:46:32.065Z,11.37
2022-09-25T15:49:11.570Z,10.50
2022-09-25T15:51:55.663Z,10.33
2022-09-25T15:54:41.004Z,10.77
2022-09-25T15:57:18.097Z,10.70
2022-09-25T16:00:14.065Z,11.43
2022-09-25T16:03:13.668Z,11.50
2022-09-25T16:05:53.351Z,13.23
2022-09-25T16:08:49.209Z,14.70
2022-09-25T16:11:26.449Z,14.20
2022-09-25T16:14:23.988Z,13.33
2022-09-25T16:17:04.929Z,11.27
2022-09-25T16:19:41.582Z,11.57
2022-09-25T16:22:25.073Z,12.20
2022-09-25T16:25:06.315Z,11.63
2022-09-25T16:27:43.921Z,11.50
2022-09-25T16:30:23.810Z,12.27
2022-09-25T16:33:14.417Z,12.77
2022-09-25T16:36:11.624Z,12.90
2022-09-25T16:39:16.021Z,12.60
2022-09-25T16:42:02.812Z,12.53
2022-09-25T16:44:49.150Z,14.27
2022-09-25T16:47:25.317Z,15.27
2022-09-25T16:50:04.161Z,14.97
2022-09-25T16:53:05.911Z,14.70
2022-09-25T16:55:48.626Z,15.33
2022-09-25T16:58:22.357Z,15.80
2022-09-25T17:01:00.261Z,16.37
2022-09-25T17:03:50.929Z,16.83
2022-09-25T17:06:28.124Z,18.90
2022-09-25T17:09:04.249Z,18.53
2022-09-25T17:11:41.167Z,18.13
2022-09-25T17:14:26.099Z,19.43
2022-09-25T17:17:05.122Z,19.83
2022-09-25T17:19:39.620Z,19.70
2022-09-25T17:22:19.282Z,20.23
2022-09-25T17:24:53.642Z,18.97
2022-09-25T17:27:28.907Z,20.10
2022-09-25T17:30:12.727Z,19.67
2022-09-25T17:32:52.106Z,21.60
2022-09-25T17:35:40.606Z,19.80
2022-09-25T17:38:17.894Z,20.43
2022-09-25T17:41:01.768Z,17.73
2022-09-25T17:43:44.875Z,19.40
2022-09-25T17:46:22.695Z,19.00
2022-09-25T17:48:58.272Z,18.77
2022-09-25T17:51:33.627Z,19.27
2022-09-25T17:54:10.312Z,17.27
2022-09-25T17:56:46.568Z,18.23
2022-09-25T17:59:21.820Z,18.37
2022-09-25T18:02:01.308Z,19.40
2022-09-25T18:04:36.112Z,18.90
2022-09-25T18:07:10.599Z,18.97
2022-09-25T18:09:52.987Z,18.30
2022-09-25T18:12:27.365Z,17.87
2022-09-25T18:15:01.962Z,18.13
2022-09-25T18:17:36.779Z,17.77
2022-09-25T18:20:28.727Z,17.50
2022-09-25T18:23:03.804Z,17.10
2022-09-25T18:25:44.822Z,18.83
2022-09-25T18:28:21.627Z,17.17
2022-09-25T18:30:57.458Z,18.10
2022-09-25T18:33:32.493Z,18.13
2022-09-25T18:36:06.632Z,17.80
2022-09-25T18:38:41.634Z,18.90
2022-09-25T18:41:18.260Z,18.67
2022-09-25T18:43:52.058Z,18.63
2022-09-25T18:46:26.867Z,18.83
2022-09-25T18:49:01.029Z,22.90
2022-09-25T18:51:36.556Z,20.00
2022-09-25T18:54:12.204Z,18.80
2022-09-25T18:56:48.546Z,17.93
2022-09-25T18:59:22.901Z,18.00
2022-09-25T19:01:58.186Z,17.63
2022-09-25T19:04:33.746Z,18.40
2022-09-25T19:07:08.093Z,20.37
2022-09-25T19:09:42.189Z,18.57
2022-09-25T19:12:18.643Z,19.33
2022-09-25T19:14:53.295Z,21.20
2022-09-25T19:17:27.386Z,21.27
2022-09-25T19:20:02.249Z,19.97
2022-09-25T19:22:36.736Z,19.13
2022-09-25T19:25:12.585Z,20.13
2022-09-25T19:27:51.933Z,20.47
2022-09-25T19:30:26.736Z,20.27
2022-09-25T19:33:01.044Z,20.30
2022-09-25T19:35:34.521Z,20.20
2022-09-25T19:38:12.603Z,19.87
2022-09-25T19:40:50.183Z,20.60
2022-09-25T19:43:25.966Z,19.27
2022-09-25T19:46:00.670Z,19.87
2022-09-25T19:48:33.953Z,21.23
2022-09-25T19:51:14.305Z,21.40
2022-09-25T19:53:48.811Z,22.10
2022-09-25T19:56:23.363Z,21.03
2022-09-25T19:58:59.623Z,21.97
2022-09-25T20:01:33.947Z,20.83
2022-09-25T20:04:08.614Z,21.67
2022-09-25T20:06:43.704Z,21.50
2022-09-25T20:09:19.160Z,21.03
2022-09-25T20:11:53.867Z,21.83
2022-09-25T20:14:29.790Z,20.47
2022-09-25T20:17:08.981Z,21.53
2022-09-25T20:19:44.463Z,22.10
2022-09-25T20:22:17.967Z,21.43
2022-09-25T20:24:52.707Z,22.30
2022-09-25T20:27:27.295Z,23.17
2022-09-25T20:30:03.124Z,22.10
2022-09-25T20:32:37.386Z,21.43
2022-09-25T20:35:12.781Z,21.97
2022-09-25T20:37:50.092Z,23.67
2022-09-25T20:40:24.184Z,22.50
2022-09-25T20:42:58.876Z,23.53
2022-09-25T20:45:34.813Z,23.83
2022-09-25T20:48:08.802Z,23.53
2022-09-25T20:50:42.362Z,23.43
2022-09-25T20:53:16.841Z,23.33
2022-09-25T20:55:50.740Z,22.67
2022-09-25T20:58:25.047Z,22.20
2022-09-25T21:01:05.664Z,22.57
2022-09-25T21:03:41.026Z,22.63
2022-09-25T21:06:17.731Z,22.47
2022-09-25T21:08:51.699Z,21.33
2022-09-25T21:11:26.233Z,21.57
2022-09-25T21:14:01.530Z,21.83
2022-09-25T21:16:38.638Z,22.03
2022-09-25T21:19:16.016Z,22.63
2022-09-25T21:21:50.126Z,22.60
2022-09-25T21:24:25.188Z,22.83
2022-09-25T21:26:58.773Z,22.30
2022-09-25T21:29:33.161Z,21.07
2022-09-25T21:32:09.779Z,20.83
2022-09-25T21:34:43.752Z,21.67
2022-09-25T21:37:17.778Z,20.67
2022-09-25T21:39:51.320Z,20.30
2022-09-25T21:42:25.850Z,19.63
2022-09-25T21:45:00.831Z,21.03
2022-09-25T21:47:36.706Z,20.93
2022-09-25T21:50:11.484Z,20.50
2022-09-25T21:52:45.806Z,21.17
2022-09-25T21:55:19.638Z,20.90
2022-09-25T21:57:54.003Z,21.50
2022-09-25T22:00:28.229Z,21.10
2022-09-25T22:03:04.729Z,20.03
2022-09-25T22:05:38.499Z,21.20
2022-09-25T22:08:12.576Z,22.07
2022-09-25T22:10:46.637Z,22.43
2022-09-25T22:13:20.644Z,23.20
2022-09-25T22:15:55.099Z,23.97
2022-09-25T22:18:34.159Z,22.03
2022-09-25T22:21:08.597Z,23.30
2022-09-25T22:23:42.940Z,22.63
2022-09-25T22:26:17.810Z,22.03
2022-09-25T22:28:52.300Z,22.83
2022-09-25T22:31:28.971Z,23.00
2022-09-25T22:34:06.507Z,21.83
2022-09-25T22:36:40.328Z,22.80
2022-09-25T22:39:17.835Z,24.10
2022-09-25T22:41:54.494Z,25.43
2022-09-25T22:44:28.217Z,24.63
2022-09-25T22:47:04.066Z,24.77
2022-09-25T22:49:40.609Z,25.80
2022-09-25T22:52:15.291Z,26.07
2022-09-25T22:54:53.407Z,30.27
2022-09-25T22:57:27.847Z,26.37
2022-09-25T23:00:01.684Z,25.70
2022-09-25T23:02:39.256Z,27.73
2022-09-25T23:05:15.949Z,26.27
2022-09-25T23:07:52.126Z,26.77
2022-09-25T23:10:26.012Z,26.53
2022-09-25T23:12:59.503Z,30.03
2022-09-25T23:15:34.675Z,28.53
2022-09-25T23:18:08.681Z,27.93
2022-09-25T23:20:45.660Z,26.40
2022-09-25T23:23:20.737Z,28.80
2022-09-25T23:25:55.800Z,25.87
2022-09-25T23:28:31.009Z,26.30
2022-09-25T23:31:11.352Z,26.27
2022-09-25T23:33:46.094Z,28.33
2022-09-25T23:36:27.633Z,26.67
2022-09-25T23:39:04.325Z,27.73
2022-09-25T23:41:40.440Z,28.57
2022-09-25T23:44:15.375Z,27.73
2022-09-25T23:46:49.744Z,26.47
2022-09-25T23:49:24.805Z,27.50
2022-09-25T23:52:04.379Z,26.87
2022-09-25T23:54:38.856Z,27.57
2022-09-25T23:57:14.618Z,28.00
2022-09-25T23:59:49.870Z,28.07
